NCAR-RAP Real-Time Weather Data

Output produced by METARs form (20 January 2018  03:37 UTC)
found at http://weather.rap.ucar.edu/surface/
 
 
KCTB 200256Z AUTO 25012KT 10SM CLR M02/M07 A2970 RMK AO2 SLP088 T10221072 53006
KCTB 200156Z AUTO 25010KT 10SM CLR M03/M07 A2969 RMK AO2 SLP084 T10281072
 
KHVR 200253Z AUTO 22015KT 10SM SCT080 M02/M05 A2972 RMK AO2 SLP086 T10171050 53006
KHVR 200153Z AUTO 23014KT 10SM CLR M01/M05 A2971 RMK AO2 SLP084 T10111050
 
KGTF 200253Z 23012KT 10SM CLR M02/M08 A2975 RMK AO2 SLP114 T10221078 51008
KGTF 200153Z 23013KT 10SM CLR M01/M08 A2974 RMK AO2 SLP105 T10061078
 
KGFA 200258Z AUTO 22013KT 10SM CLR M02/M06 A2977 RMK AO2 SLP111 T10161056 52007 $
KGFA 200158Z AUTO 22013KT 10SM CLR M02/M05 A2976 RMK AO2 SLP108 T10191052 $
 
 
KHLN 200253Z VRB06KT 10SM CLR M01/M07 A2983 RMK AO2 SLP144 T10061067 51009
KHLN 200153Z 25008KT 10SM CLR M01/M07 A2983 RMK AO2 SLP144 T10061067
 
KLWT 200254Z AUTO 24009KT 10SM FEW065 M01/M04 A2976 RMK AO2 SLP099 T10111039 53008
KLWT 200154Z AUTO 21008KT 10SM CLR M02/M04 A2973 RMK AO2 SLP092 T10171039